sensor_id;sensor_type;location;lat;lon;timestamp;pressure;altitude;pressure_sealevel;temperature;humidity
42847;BME280;28495;49.916;14.536;2023-02-04T00:04:21;96840.50;;;3.95;72.10
42847;BME280;28495;49.916;14.536;2023-02-04T00:09:43;96857.72;;;3.95;72.38
42847;BME280;28495;49.916;14.536;2023-02-04T00:15:07;96852.56;;;3.95;71.86
42847;BME280;28495;49.916;14.536;2023-02-04T00:20:28;96863.81;;;3.94;72.08
42847;BME280;28495;49.916;14.536;2023-02-04T00:25:49;96877.75;;;3.91;71.68
42847;BME280;28495;49.916;14.536;2023-02-04T00:31:10;96884.84;;;3.88;71.98
42847;BME280;28495;49.916;14.536;2023-02-04T00:36:32;96884.94;;;3.86;71.76
42847;BME280;28495;49.916;14.536;2023-02-04T00:41:52;96912.41;;;3.87;71.99
42847;BME280;28495;49.916;14.536;2023-02-04T00:47:13;96923.75;;;3.85;71.88
42847;BME280;28495;49.916;14.536;2023-02-04T00:52:34;96926.44;;;3.83;71.88
42847;BME280;28495;49.916;14.536;2023-02-04T00:57:55;96918.69;;;3.83;72.22
42847;BME280;28495;49.916;14.536;2023-02-04T01:03:16;96907.63;;;3.81;71.67
42847;BME280;28495;49.916;14.536;2023-02-04T01:08:37;96923.13;;;3.81;72.02
42847;BME280;28495;49.916;14.536;2023-02-04T01:13:58;96907.19;;;3.74;71.89
42847;BME280;28495;49.916;14.536;2023-02-04T01:19:18;96931.50;;;3.70;72.42
42847;BME280;28495;49.916;14.536;2023-02-04T01:24:40;96945.31;;;3.69;72.65
42847;BME280;28495;49.916;14.536;2023-02-04T01:30:20;96960.06;;;3.67;72.28
42847;BME280;28495;49.916;14.536;2023-02-04T01:35:41;96961.72;;;3.68;72.10
42847;BME280;28495;49.916;14.536;2023-02-04T01:41:03;96986.31;;;3.59;72.36
42847;BME280;28495;49.916;14.536;2023-02-04T01:46:24;97038.50;;;3.48;72.61
42847;BME280;28495;49.916;14.536;2023-02-04T01:51:45;97032.72;;;3.14;72.51
42847;BME280;28495;49.916;14.536;2023-02-04T01:57:12;97068.63;;;2.71;72.83
42847;BME280;28495;49.916;14.536;2023-02-04T02:02:46;97071.75;;;2.44;73.21
42847;BME280;28495;49.916;14.536;2023-02-04T02:08:08;97101.56;;;2.32;72.98
42847;BME280;28495;49.916;14.536;2023-02-04T02:13:30;97083.88;;;2.26;72.63
42847;BME280;28495;49.916;14.536;2023-02-04T02:18:51;97087.84;;;2.16;72.38
42847;BME280;28495;49.916;14.536;2023-02-04T02:24:30;97129.25;;;2.11;72.81
42847;BME280;28495;49.916;14.536;2023-02-04T02:29:51;97160.28;;;2.08;72.10
42847;BME280;28495;49.916;14.536;2023-02-04T02:35:12;97199.25;;;2.00;72.69
42847;BME280;28495;49.916;14.536;2023-02-04T02:40:34;97211.72;;;1.90;72.28
42847;BME280;28495;49.916;14.536;2023-02-04T02:45:57;97217.91;;;1.86;72.01
42847;BME280;28495;49.916;14.536;2023-02-04T02:51:19;97245.41;;;1.86;72.47
42847;BME280;28495;49.916;14.536;2023-02-04T02:56:40;97251.81;;;1.77;72.12
42847;BME280;28495;49.916;14.536;2023-02-04T03:02:02;97279.41;;;1.73;72.38
42847;BME280;28495;49.916;14.536;2023-02-04T03:07:27;97275.59;;;1.63;71.88
42847;BME280;28495;49.916;14.536;2023-02-04T03:12:47;97281.81;;;1.59;71.41
42847;BME280;28495;49.916;14.536;2023-02-04T03:18:10;97298.31;;;1.53;71.60
42847;BME280;28495;49.916;14.536;2023-02-04T03:23:33;97337.44;;;1.41;71.42
42847;BME280;28495;49.916;14.536;2023-02-04T03:28:56;97350.72;;;1.31;71.61
42847;BME280;28495;49.916;14.536;2023-02-04T03:34:18;97365.44;;;1.28;71.62
42847;BME280;28495;49.916;14.536;2023-02-04T03:39:39;97384.66;;;1.19;71.49
42847;BME280;28495;49.916;14.536;2023-02-04T03:45:00;97393.59;;;1.10;71.78
42847;BME280;28495;49.916;14.536;2023-02-04T03:50:20;97428.09;;;1.04;71.79
42847;BME280;28495;49.916;14.536;2023-02-04T03:55:41;97453.25;;;0.96;72.10
42847;BME280;28495;49.916;14.536;2023-02-04T04:01:02;97471.94;;;1.00;72.26
42847;BME280;28495;49.916;14.536;2023-02-04T04:06:22;97486.59;;;0.98;72.63
42847;BME280;28495;49.916;14.536;2023-02-04T04:11:43;97503.78;;;0.96;72.62
42847;BME280;28495;49.916;14.536;2023-02-04T04:17:04;97511.66;;;0.91;72.11
42847;BME280;28495;49.916;14.536;2023-02-04T04:22:25;97531.31;;;0.92;72.05
42847;BME280;28495;49.916;14.536;2023-02-04T04:27:47;97545.41;;;0.82;72.64
42847;BME280;28495;49.916;14.536;2023-02-04T04:33:08;97569.06;;;0.68;71.79
42847;BME280;28495;49.916;14.536;2023-02-04T04:38:28;97589.75;;;0.63;71.98
42847;BME280;28495;49.916;14.536;2023-02-04T04:43:49;97619.03;;;0.59;71.66
42847;BME280;28495;49.916;14.536;2023-02-04T04:49:10;97639.06;;;0.49;71.62
42847;BME280;28495;49.916;14.536;2023-02-04T04:54:31;97652.09;;;0.43;71.49
42847;BME280;28495;49.916;14.536;2023-02-04T04:59:51;97684.03;;;0.36;71.37
42847;BME280;28495;49.916;14.536;2023-02-04T05:05:13;97694.41;;;0.33;71.22
42847;BME280;28495;49.916;14.536;2023-02-04T05:10:33;97696.06;;;0.34;71.41
42847;BME280;28495;49.916;14.536;2023-02-04T05:15:54;97711.56;;;0.30;71.60
42847;BME280;28495;49.916;14.536;2023-02-04T05:21:15;97733.72;;;0.33;71.38
42847;BME280;28495;49.916;14.536;2023-02-04T05:26:36;97749.88;;;0.35;71.44
42847;BME280;28495;49.916;14.536;2023-02-04T05:31:57;97778.03;;;0.38;71.34
42847;BME280;28495;49.916;14.536;2023-02-04T05:37:18;97797.75;;;0.36;71.20
42847;BME280;28495;49.916;14.536;2023-02-04T05:42:40;97828.72;;;0.32;71.20
42847;BME280;28495;49.916;14.536;2023-02-04T05:48:01;97846.75;;;0.28;71.27
42847;BME280;28495;49.916;14.536;2023-02-04T05:53:22;97861.28;;;0.29;71.11
42847;BME280;28495;49.916;14.536;2023-02-04T05:58:45;97860.47;;;0.27;71.07
42847;BME280;28495;49.916;14.536;2023-02-04T06:04:06;97879.13;;;0.33;70.92
42847;BME280;28495;49.916;14.536;2023-02-04T06:09:27;97891.25;;;0.29;70.94
42847;BME280;28495;49.916;14.536;2023-02-04T06:14:48;97891.25;;;0.27;70.32
42847;BME280;28495;49.916;14.536;2023-02-04T06:20:11;97907.69;;;0.22;70.18
42847;BME280;28495;49.916;14.536;2023-02-04T06:25:33;97917.25;;;0.17;70.07
42847;BME280;28495;49.916;14.536;2023-02-04T06:30:54;97930.97;;;0.15;69.92
42847;BME280;28495;49.916;14.536;2023-02-04T06:36:14;97951.41;;;0.19;70.42
42847;BME280;28495;49.916;14.536;2023-02-04T06:41:35;97972.78;;;0.19;69.69
42847;BME280;28495;49.916;14.536;2023-02-04T06:46:56;97984.59;;;0.23;69.81
42847;BME280;28495;49.916;14.536;2023-02-04T06:52:17;97999.97;;;0.25;69.93
42847;BME280;28495;49.916;14.536;2023-02-04T06:57:38;98021.25;;;0.28;69.73
42847;BME280;28495;49.916;14.536;2023-02-04T07:02:59;98027.97;;;0.33;69.99
42847;BME280;28495;49.916;14.536;2023-02-04T07:08:19;98047.41;;;0.40;70.17
42847;BME280;28495;49.916;14.536;2023-02-04T07:13:43;98060.97;;;0.45;70.20
42847;BME280;28495;49.916;14.536;2023-02-04T07:19:04;98068.53;;;0.50;69.73
42847;BME280;28495;49.916;14.536;2023-02-04T07:24:25;98083.41;;;0.38;69.76
42847;BME280;28495;49.916;14.536;2023-02-04T07:29:46;98094.50;;;0.39;70.00
42847;BME280;28495;49.916;14.536;2023-02-04T07:35:06;98110.69;;;0.41;70.27
42847;BME280;28495;49.916;14.536;2023-02-04T07:40:28;98124.25;;;0.46;70.29
42847;BME280;28495;49.916;14.536;2023-02-04T07:45:49;98135.41;;;0.45;69.51
42847;BME280;28495;49.916;14.536;2023-02-04T07:51:10;98144.13;;;0.39;69.25
42847;BME280;28495;49.916;14.536;2023-02-04T07:56:30;98150.34;;;0.30;69.49
42847;BME280;28495;49.916;14.536;2023-02-04T08:01:51;98158.56;;;0.43;69.84
42847;BME280;28495;49.916;14.536;2023-02-04T08:07:12;98164.34;;;0.50;69.65
42847;BME280;28495;49.916;14.536;2023-02-04T08:12:33;98168.69;;;0.48;69.27
42847;BME280;28495;49.916;14.536;2023-02-04T08:17:54;98172.94;;;0.49;69.22
42847;BME280;28495;49.916;14.536;2023-02-04T08:23:14;98186.69;;;0.47;69.39
42847;BME280;28495;49.916;14.536;2023-02-04T08:28:36;98188.34;;;0.49;69.38
42847;BME280;28495;49.916;14.536;2023-02-04T08:33:57;98194.69;;;0.36;69.33
42847;BME280;28495;49.916;14.536;2023-02-04T08:39:18;98202.97;;;0.45;69.52
42847;BME280;28495;49.916;14.536;2023-02-04T08:44:39;98208.78;;;0.52;69.32
42847;BME280;28495;49.916;14.536;2023-02-04T08:50:00;98224.50;;;0.40;69.20
42847;BME280;28495;49.916;14.536;2023-02-04T08:55:21;98246.25;;;0.26;68.98
42847;BME280;28495;49.916;14.536;2023-02-04T09:00:42;98262.56;;;0.57;70.06
42847;BME280;28495;49.916;14.536;2023-02-04T09:06:03;98266.97;;;0.52;68.11
42847;BME280;28495;49.916;14.536;2023-02-04T09:11:24;98280.69;;;0.51;68.21
42847;BME280;28495;49.916;14.536;2023-02-04T09:16:45;98292.59;;;0.53;67.80
42847;BME280;28495;49.916;14.536;2023-02-04T09:22:08;98313.25;;;0.49;67.97
42847;BME280;28495;49.916;14.536;2023-02-04T09:27:29;98326.06;;;0.50;67.97
42847;BME280;28495;49.916;14.536;2023-02-04T09:32:50;98338.91;;;0.50;68.02
42847;BME280;28495;49.916;14.536;2023-02-04T09:38:11;98349.91;;;0.88;68.41
42847;BME280;28495;49.916;14.536;2023-02-04T09:43:38;98350.75;;;0.89;68.43
42847;BME280;28495;49.916;14.536;2023-02-04T09:49:00;98364.69;;;0.79;67.92
42847;BME280;28495;49.916;14.536;2023-02-04T09:54:24;98375.16;;;0.72;67.41
42847;BME280;28495;49.916;14.536;2023-02-04T09:59:45;98380.22;;;0.74;67.60
42847;BME280;28495;49.916;14.536;2023-02-04T10:05:28;98395.84;;;0.99;67.44
42847;BME280;28495;49.916;14.536;2023-02-04T10:10:50;98390.94;;;1.23;67.06
42847;BME280;28495;49.916;14.536;2023-02-04T10:16:23;98394.91;;;1.35;67.27
42847;BME280;28495;49.916;14.536;2023-02-04T10:21:49;98391.75;;;1.57;67.47
42847;BME280;28495;49.916;14.536;2023-02-04T10:27:12;98392.78;;;1.49;67.15
42847;BME280;28495;49.916;14.536;2023-02-04T10:32:35;98390.28;;;1.46;66.77
42847;BME280;28495;49.916;14.536;2023-02-04T10:38:08;98405.25;;;1.33;66.34
42847;BME280;28495;49.916;14.536;2023-02-04T10:43:30;98417.38;;;1.28;66.58
42847;BME280;28495;49.916;14.536;2023-02-04T10:48:51;98413.84;;;1.32;66.70
42847;BME280;28495;49.916;14.536;2023-02-04T10:54:12;98424.81;;;1.37;67.00
42847;BME280;28495;49.916;14.536;2023-02-04T11:00:02;98431.09;;;2.19;67.07
42847;BME280;28495;49.916;14.536;2023-02-04T11:05:29;98424.66;;;2.04;67.33
42847;BME280;28495;49.916;14.536;2023-02-04T11:11:02;98442.06;;;1.65;66.22
42847;BME280;28495;49.916;14.536;2023-02-04T11:16:26;98445.16;;;1.47;66.69
42847;BME280;28495;49.916;14.536;2023-02-04T11:21:47;98463.38;;;1.37;66.10
42847;BME280;28495;49.916;14.536;2023-02-04T11:27:24;98462.19;;;1.18;66.28
42847;BME280;28495;49.916;14.536;2023-02-04T11:33:20;98469.97;;;1.15;66.38
42847;BME280;28495;49.916;14.536;2023-02-04T11:38:46;98480.19;;;1.16;66.74
42847;BME280;28495;49.916;14.536;2023-02-04T11:44:08;98480.31;;;1.12;66.49
42847;BME280;28495;49.916;14.536;2023-02-04T11:49:34;98480.13;;;1.19;67.18
42847;BME280;28495;49.916;14.536;2023-02-04T11:54:59;98474.06;;;1.22;66.46
42847;BME280;28495;49.916;14.536;2023-02-04T12:00:25;98474.78;;;1.27;67.17
42847;BME280;28495;49.916;14.536;2023-02-04T12:05:48;98473.22;;;1.21;65.98
42847;BME280;28495;49.916;14.536;2023-02-04T12:11:12;98477.63;;;1.16;66.29
42847;BME280;28495;49.916;14.536;2023-02-04T12:16:47;98473.34;;;1.17;66.27
42847;BME280;28495;49.916;14.536;2023-02-04T12:22:08;98469.78;;;1.23;66.44
42847;BME280;28495;49.916;14.536;2023-02-04T12:27:29;98478.09;;;1.64;66.42
42847;BME280;28495;49.916;14.536;2023-02-04T12:32:50;98479.91;;;1.60;65.63
42847;BME280;28495;49.916;14.536;2023-02-04T12:38:11;98468.91;;;1.55;65.54
42847;BME280;28495;49.916;14.536;2023-02-04T12:43:32;98477.91;;;1.40;65.25
42847;BME280;28495;49.916;14.536;2023-02-04T12:48:53;98483.19;;;1.34;65.21
42847;BME280;28495;49.916;14.536;2023-02-04T12:54:14;98490.16;;;1.29;65.44
42847;BME280;28495;49.916;14.536;2023-02-04T12:59:38;98484.94;;;1.32;64.89
42847;BME280;28495;49.916;14.536;2023-02-04T13:04:58;98485.88;;;1.29;65.27
42847;BME280;28495;49.916;14.536;2023-02-04T13:10:20;98480.22;;;1.49;65.67
42847;BME280;28495;49.916;14.536;2023-02-04T13:15:41;98488.59;;;1.56;65.35
42847;BME280;28495;49.916;14.536;2023-02-04T13:21:02;98484.66;;;1.43;64.86
42847;BME280;28495;49.916;14.536;2023-02-04T13:26:24;98494.19;;;1.39;64.92
42847;BME280;28495;49.916;14.536;2023-02-04T13:31:45;98490.88;;;1.35;64.89
42847;BME280;28495;49.916;14.536;2023-02-04T13:37:06;98498.94;;;1.55;65.41
42847;BME280;28495;49.916;14.536;2023-02-04T13:42:26;98483.25;;;1.64;65.00
42847;BME280;28495;49.916;14.536;2023-02-04T13:47:47;98507.25;;;1.64;64.69
42847;BME280;28495;49.916;14.536;2023-02-04T13:53:08;98503.53;;;1.75;64.55
42847;BME280;28495;49.916;14.536;2023-02-04T13:58:29;98510.31;;;1.77;64.56
42847;BME280;28495;49.916;14.536;2023-02-04T14:03:50;98513.16;;;1.68;64.06
42847;BME280;28495;49.916;14.536;2023-02-04T14:09:11;98517.69;;;1.58;64.31
42847;BME280;28495;49.916;14.536;2023-02-04T14:14:32;98516.94;;;1.55;63.71
42847;BME280;28495;49.916;14.536;2023-02-04T14:19:53;98523.28;;;1.41;63.84
42847;BME280;28495;49.916;14.536;2023-02-04T14:25:14;98527.69;;;1.36;64.35
42847;BME280;28495;49.916;14.536;2023-02-04T14:30:35;98521.63;;;1.39;64.13
42847;BME280;28495;49.916;14.536;2023-02-04T14:35:56;98536.34;;;1.33;64.21
42847;BME280;28495;49.916;14.536;2023-02-04T14:41:17;98537.84;;;1.41;63.88
42847;BME280;28495;49.916;14.536;2023-02-04T14:46:41;98540.50;;;1.37;64.07
42847;BME280;28495;49.916;14.536;2023-02-04T14:52:04;98538.03;;;1.34;64.10
42847;BME280;28495;49.916;14.536;2023-02-04T14:57:25;98537.84;;;1.41;64.24
42847;BME280;28495;49.916;14.536;2023-02-04T15:02:46;98548.00;;;1.45;64.21
42847;BME280;28495;49.916;14.536;2023-02-04T15:08:10;98543.81;;;1.43;64.17
42847;BME280;28495;49.916;14.536;2023-02-04T15:13:30;98543.81;;;1.43;63.92
42847;BME280;28495;49.916;14.536;2023-02-04T15:18:51;98536.00;;;1.46;64.50
42847;BME280;28495;49.916;14.536;2023-02-04T15:24:12;98549.69;;;1.48;64.03
42847;BME280;28495;49.916;14.536;2023-02-04T15:29:33;98544.56;;;1.46;64.32
42847;BME280;28495;49.916;14.536;2023-02-04T15:34:54;98533.66;;;1.36;64.32
42847;BME280;28495;49.916;14.536;2023-02-04T15:40:15;98536.41;;;1.30;64.41
42847;BME280;28495;49.916;14.536;2023-02-04T15:45:37;98545.13;;;1.23;64.24
42847;BME280;28495;49.916;14.536;2023-02-04T15:51:01;98552.38;;;1.07;64.37
42847;BME280;28495;49.916;14.536;2023-02-04T15:56:21;98549.16;;;0.99;64.80
42847;BME280;28495;49.916;14.536;2023-02-04T16:01:42;98553.72;;;1.90;66.47
42847;BME280;28495;49.916;14.536;2023-02-04T16:07:03;98562.47;;;1.51;65.02
42847;BME280;28495;49.916;14.536;2023-02-04T16:12:28;98566.19;;;1.37;64.77
42847;BME280;28495;49.916;14.536;2023-02-04T16:17:49;98573.47;;;1.21;64.81
42847;BME280;28495;49.916;14.536;2023-02-04T16:23:10;98566.69;;;1.19;65.16
42847;BME280;28495;49.916;14.536;2023-02-04T16:28:31;98566.50;;;1.25;65.24
42847;BME280;28495;49.916;14.536;2023-02-04T16:33:52;98559.84;;;1.18;65.17
42847;BME280;28495;49.916;14.536;2023-02-04T16:39:13;98573.78;;;1.08;64.94
42847;BME280;28495;49.916;14.536;2023-02-04T16:44:35;98574.88;;;0.97;65.39
42847;BME280;28495;49.916;14.536;2023-02-04T16:49:59;98585.28;;;0.91;65.71
42847;BME280;28495;49.916;14.536;2023-02-04T16:55:20;98589.81;;;0.80;65.18
42847;BME280;28495;49.916;14.536;2023-02-04T17:00:41;98588.22;;;0.75;65.47
42847;BME280;28495;49.916;14.536;2023-02-04T17:06:04;98589.97;;;0.73;65.31
42847;BME280;28495;49.916;14.536;2023-02-04T17:11:25;98604.53;;;0.73;65.57
42847;BME280;28495;49.916;14.536;2023-02-04T17:16:49;98604.50;;;0.74;65.30
42847;BME280;28495;49.916;14.536;2023-02-04T17:22:13;98607.25;;;0.67;65.28
42847;BME280;28495;49.916;14.536;2023-02-04T17:27:35;98610.53;;;0.73;65.21
42847;BME280;28495;49.916;14.536;2023-02-04T17:32:56;98610.44;;;0.76;65.64
42847;BME280;28495;49.916;14.536;2023-02-04T17:38:17;98613.97;;;0.72;65.64
42847;BME280;28495;49.916;14.536;2023-02-04T17:43:38;98619.94;;;0.73;65.46
42847;BME280;28495;49.916;14.536;2023-02-04T17:48:59;98622.56;;;0.71;65.61
42847;BME280;28495;49.916;14.536;2023-02-04T17:54:20;98620.91;;;0.67;65.31
42847;BME280;28495;49.916;14.536;2023-02-04T17:59:41;98615.81;;;0.66;65.66
42847;BME280;28495;49.916;14.536;2023-02-04T18:05:12;98618.63;;;0.53;65.78
42847;BME280;28495;49.916;14.536;2023-02-04T18:10:39;98631.28;;;0.63;65.65
42847;BME280;28495;49.916;14.536;2023-02-04T18:16:08;98627.78;;;0.67;65.92
42847;BME280;28495;49.916;14.536;2023-02-04T18:21:32;98630.41;;;0.64;65.57
42847;BME280;28495;49.916;14.536;2023-02-04T18:26:54;98628.41;;;0.78;67.12
42847;BME280;28495;49.916;14.536;2023-02-04T18:32:22;98625.47;;;2.01;69.76
42847;BME280;28495;49.916;14.536;2023-02-04T18:37:47;98617.97;;;1.93;66.38
42847;BME280;28495;49.916;14.536;2023-02-04T18:53:52;98632.97;;;1.04;65.52
42847;BME280;28495;49.916;14.536;2023-02-04T18:59:16;98635.19;;;0.81;65.59
42847;BME280;28495;49.916;14.536;2023-02-04T19:04:38;98631.44;;;0.55;65.35
42847;BME280;28495;49.916;14.536;2023-02-04T19:09:59;98634.84;;;0.55;66.26
42847;BME280;28495;49.916;14.536;2023-02-04T19:15:36;98646.13;;;0.48;66.36
42847;BME280;28495;49.916;14.536;2023-02-04T19:21:14;98643.34;;;0.59;66.39
42847;BME280;28495;49.916;14.536;2023-02-04T19:32:24;98639.72;;;0.69;66.62
42847;BME280;28495;49.916;14.536;2023-02-04T19:37:54;98639.53;;;0.77;66.13
42847;BME280;28495;49.916;14.536;2023-02-04T19:43:34;98646.38;;;0.78;66.87
42847;BME280;28495;49.916;14.536;2023-02-04T19:48:55;98648.19;;;0.74;66.65
42847;BME280;28495;49.916;14.536;2023-02-04T19:54:19;98644.09;;;0.64;66.42
42847;BME280;28495;49.916;14.536;2023-02-04T19:59:42;98644.16;;;0.61;66.55
42847;BME280;28495;49.916;14.536;2023-02-04T20:05:17;98636.44;;;0.61;66.63
42847;BME280;28495;49.916;14.536;2023-02-04T20:10:38;98636.44;;;0.61;66.54
42847;BME280;28495;49.916;14.536;2023-02-04T20:27:27;98655.06;;;0.28;66.30
42847;BME280;28495;49.916;14.536;2023-02-04T20:32:57;98649.94;;;0.28;66.62
42847;BME280;28495;49.916;14.536;2023-02-04T20:38:18;98658.50;;;0.29;66.81
42847;BME280;28495;49.916;14.536;2023-02-04T20:43:40;98656.84;;;0.23;66.56
42847;BME280;28495;49.916;14.536;2023-02-04T20:49:15;98665.56;;;0.16;66.57
42847;BME280;28495;49.916;14.536;2023-02-04T20:54:38;98672.22;;;0.26;66.93
42847;BME280;28495;49.916;14.536;2023-02-04T20:59:59;98678.25;;;0.24;66.69
42847;BME280;28495;49.916;14.536;2023-02-04T21:05:21;98692.88;;;0.19;66.99
42847;BME280;28495;49.916;14.536;2023-02-04T21:10:43;98690.44;;;0.12;66.60
42847;BME280;28495;49.916;14.536;2023-02-04T21:16:05;98700.63;;;0.15;66.80
42847;BME280;28495;49.916;14.536;2023-02-04T21:21:26;98693.88;;;0.10;66.95
42847;BME280;28495;49.916;14.536;2023-02-04T21:26:48;98708.50;;;0.06;66.93
42847;BME280;28495;49.916;14.536;2023-02-04T21:32:09;98701.66;;;0.07;67.05
42847;BME280;28495;49.916;14.536;2023-02-04T21:37:30;98703.28;;;0.11;67.22
42847;BME280;28495;49.916;14.536;2023-02-04T21:42:51;98707.66;;;0.06;66.85
42847;BME280;28495;49.916;14.536;2023-02-04T21:48:12;98712.06;;;-0.03;66.92
42847;BME280;28495;49.916;14.536;2023-02-04T21:53:35;98713.81;;;-0.05;67.04
42847;BME280;28495;49.916;14.536;2023-02-04T21:58:55;98724.94;;;-0.04;66.79
42847;BME280;28495;49.916;14.536;2023-02-04T22:04:17;98725.72;;;-0.01;67.18
42847;BME280;28495;49.916;14.536;2023-02-04T22:09:38;98737.75;;;-0.06;66.76
42847;BME280;28495;49.916;14.536;2023-02-04T22:14:59;98738.81;;;-0.18;66.51
42847;BME280;28495;49.916;14.536;2023-02-04T22:20:38;98749.13;;;-0.21;66.80
42847;BME280;28495;49.916;14.536;2023-02-04T22:25:59;98749.25;;;-0.30;66.86
42847;BME280;28495;49.916;14.536;2023-02-04T22:31:20;98744.94;;;-0.26;66.74
42847;BME280;28495;49.916;14.536;2023-02-04T22:36:40;98749.19;;;-0.25;66.70
42847;BME280;28495;49.916;14.536;2023-02-04T22:42:01;98751.91;;;-0.36;66.75
42847;BME280;28495;49.916;14.536;2023-02-04T22:47:22;98743.66;;;-0.55;66.57
42847;BME280;28495;49.916;14.536;2023-02-04T22:52:43;98748.88;;;-0.62;66.24
42847;BME280;28495;49.916;14.536;2023-02-04T22:58:04;98760.09;;;-0.69;66.78
42847;BME280;28495;49.916;14.536;2023-02-04T23:03:25;98764.31;;;-0.68;66.40
42847;BME280;28495;49.916;14.536;2023-02-04T23:08:45;98767.66;;;-0.61;66.40
42847;BME280;28495;49.916;14.536;2023-02-04T23:14:06;98776.03;;;-0.51;66.06
42847;BME280;28495;49.916;14.536;2023-02-04T23:19:27;98783.72;;;-0.50;66.19
42847;BME280;28495;49.916;14.536;2023-02-04T23:24:48;98782.97;;;-0.58;65.99
42847;BME280;28495;49.916;14.536;2023-02-04T23:30:09;98782.06;;;-0.54;65.32
42847;BME280;28495;49.916;14.536;2023-02-04T23:35:31;98778.94;;;-0.76;65.25
42847;BME280;28495;49.916;14.536;2023-02-04T23:40:52;98784.03;;;-0.73;65.50
42847;BME280;28495;49.916;14.536;2023-02-04T23:46:13;98782.44;;;-0.82;65.21
42847;BME280;28495;49.916;14.536;2023-02-04T23:51:34;98786.75;;;-0.87;65.12
42847;BME280;28495;49.916;14.536;2023-02-04T23:56:56;98797.03;;;-0.88;65.25
